Time;durP1;ratioP1;P1;durP2;ratioP2;P2;SDS_P1;SDS_P2;PMS_P1;PMS_P2;Temp;Humidity;BMP_temperature;BMP_pressure;BME280_temperature;BME280_humidity;BME280_pressure;Samples;Min_cycle;Max_cycle;Signal;HPM_P1;HPM_P2
2021/03/07 00:00:32;;;;;;;8.85;4.38;;;5.10;92.80;;;;;;4963481;28;20402;-77
2021/03/07 00:02:58;;;;;;;10.85;4.90;;;5.10;93.30;;;;;;4959454;28;20118;-76
2021/03/07 00:05:24;;;;;;;8.20;4.57;;;5.10;93.20;;;;;;4955798;28;20035;-76
2021/03/07 00:07:50;;;;;;;9.55;5.65;;;5.10;93.10;;;;;;4952642;28;20043;-75
2021/03/07 00:10:18;;;;;;;7.55;4.97;;;5.00;93.00;;;;;;4947422;28;20046;-76
2021/03/07 00:12:45;;;;;;;6.95;5.15;;;5.10;93.10;;;;;;4958397;28;20117;-75
2021/03/07 00:15:12;;;;;;;12.20;5.28;;;5.10;93.00;;;;;;4966208;28;20059;-75
2021/03/07 00:17:39;;;;;;;6.93;4.93;;;5.10;93.00;;;;;;4955187;28;20490;-75
2021/03/07 00:20:07;;;;;;;6.95;5.10;;;5.10;93.40;;;;;;4959381;28;20485;-75
2021/03/07 00:22:33;;;;;;;9.20;5.43;;;5.00;93.30;;;;;;4964028;28;20493;-76
2021/03/07 00:24:59;;;;;;;5.53;4.60;;;4.90;93.50;;;;;;4953780;28;20042;-75
2021/03/07 00:27:24;;;;;;;6.75;4.97;;;4.90;93.10;;;;;;4963572;28;20069;-75
2021/03/07 00:29:50;;;;;;;7.13;5.07;;;4.90;93.30;;;;;;4955451;28;20031;-75
2021/03/07 00:32:16;;;;;;;8.45;5.22;;;4.90;93.10;;;;;;4960847;28;20393;-75
2021/03/07 00:34:42;;;;;;;6.55;5.07;;;4.90;93.90;;;;;;4956903;28;20027;-77
2021/03/07 00:37:08;;;;;;;8.63;6.10;;;4.80;93.30;;;;;;4935508;28;20036;-75
2021/03/07 00:39:34;;;;;;;5.32;4.35;;;4.80;93.80;;;;;;4951404;28;20101;-76
2021/03/07 00:42:00;;;;;;;8.15;5.53;;;4.70;94.00;;;;;;4949362;28;20481;-75
2021/03/07 00:44:27;;;;;;;6.07;4.82;;;4.70;94.00;;;;;;4967802;28;20038;-77
2021/03/07 00:46:54;;;;;;;7.85;4.70;;;4.50;94.10;;;;;;4960443;28;20023;-76
2021/03/07 00:49:22;;;;;;;7.55;5.03;;;4.60;93.80;;;;;;4955886;28;20028;-76
2021/03/07 00:51:48;;;;;;;6.65;5.25;;;4.70;93.90;;;;;;4960186;28;20477;-75
2021/03/07 00:54:15;;;;;;;8.57;4.90;;;4.70;93.80;;;;;;4965400;28;20483;-75
2021/03/07 00:56:40;;;;;;;11.68;5.35;;;4.70;94.00;;;;;;4967812;28;20030;-76
2021/03/07 00:59:07;;;;;;;6.03;4.85;;;4.70;93.50;;;;;;4965096;28;20031;-75
2021/03/07 01:01:33;;;;;;;7.43;5.60;;;4.60;93.20;;;;;;4961969;28;20090;-76
2021/03/07 01:03:59;;;;;;;5.93;4.53;;;4.80;93.10;;;;;;4954451;28;20034;-76
2021/03/07 01:06:25;;;;;;;9.35;5.65;;;4.80;93.00;;;;;;4957003;28;20022;-75
2021/03/07 01:08:58;;;;;;;10.25;5.20;;;4.90;92.50;;;;;;4964267;28;20042;-75
2021/03/07 01:11:25;;;;;;;8.80;5.00;;;4.90;92.30;;;;;;4950391;28;20508;-76
2021/03/07 01:13:52;;;;;;;5.75;4.47;;;4.90;92.40;;;;;;4962392;28;20031;-77
2021/03/07 01:16:18;;;;;;;9.30;5.88;;;4.90;92.40;;;;;;4963423;28;20054;-75
2021/03/07 01:18:45;;;;;;;9.82;6.13;;;4.80;92.60;;;;;;4956707;28;20456;-75
2021/03/07 01:21:10;;;;;;;7.97;4.78;;;4.70;93.30;;;;;;4962536;28;20027;-75
2021/03/07 01:23:36;;;;;;;6.72;5.00;;;4.80;93.40;;;;;;4946279;28;20203;-75
2021/03/07 01:26:02;;;;;;;9.55;4.68;;;4.80;93.20;;;;;;4957587;28;20035;-76
2021/03/07 01:28:29;;;;;;;4.55;4.00;;;4.60;93.20;;;;;;4954867;28;20027;-75
2021/03/07 01:30:55;;;;;;;8.65;5.32;;;4.50;93.50;;;;;;4965069;28;20074;-76
2021/03/07 01:33:20;;;;;;;7.75;5.03;;;4.40;93.70;;;;;;4962768;28;20054;-76
2021/03/07 01:35:47;;;;;;;8.05;5.15;;;4.50;93.60;;;;;;4958723;28;20098;-77
2021/03/07 01:38:13;;;;;;;6.68;5.22;;;4.50;93.50;;;;;;4957602;28;20035;-76
2021/03/07 01:40:45;;;;;;;7.85;5.20;;;4.50;93.70;;;;;;4961045;28;20035;-75
2021/03/07 01:43:12;;;;;;;9.55;5.53;;;4.50;93.60;;;;;;4964415;28;20030;-75
2021/03/07 01:45:38;;;;;;;6.70;4.88;;;4.50;94.10;;;;;;4955374;28;20062;-75
2021/03/07 01:48:07;;;;;;;7.20;5.00;;;4.60;94.60;;;;;;4963639;28;20090;-75
2021/03/07 01:50:35;;;;;;;6.43;5.00;;;4.40;95.10;;;;;;4955569;28;20060;-78
2021/03/07 01:53:02;;;;;;;6.68;5.80;;;4.20;95.90;;;;;;4974170;28;20035;-75
2021/03/07 01:55:32;;;;;;;6.85;4.78;;;4.10;96.30;;;;;;4960180;28;20027;-75
2021/03/07 01:58:07;;;;;;;6.53;4.85;;;4.10;96.30;;;;;;4966416;28;21106;-76
2021/03/07 02:00:33;;;;;;;6.45;4.78;;;3.90;97.10;;;;;;4954359;28;20629;-76
2021/03/07 02:02:59;;;;;;;9.30;5.95;;;4.00;97.00;;;;;;4962265;28;20027;-76
2021/03/07 02:05:26;;;;;;;9.18;6.03;;;4.10;95.50;;;;;;4946110;28;20039;-75
2021/03/07 02:07:53;;;;;;;6.18;5.28;;;4.20;95.30;;;;;;4962862;28;20038;-79
2021/03/07 02:10:30;;;;;;;8.23;5.20;;;4.20;95.90;;;;;;4964971;28;20059;-76
2021/03/07 02:13:00;;;;;;;5.80;4.85;;;4.20;96.00;;;;;;4960665;28;20028;-75
2021/03/07 02:15:30;;;;;;;7.20;5.18;;;4.20;95.50;;;;;;4953783;28;20026;-75
2021/03/07 02:17:56;;;;;;;7.95;4.93;;;4.30;94.90;;;;;;4963781;28;20524;-75
2021/03/07 02:20:24;;;;;;;5.40;4.72;;;4.30;94.60;;;;;;4964303;28;20453;-75
2021/03/07 02:22:54;;;;;;;7.57;4.97;;;4.30;94.40;;;;;;4945465;28;20032;-75
2021/03/07 02:25:20;;;;;;;8.68;4.90;;;4.30;94.40;;;;;;4948386;28;20024;-75
2021/03/07 02:27:46;;;;;;;7.65;5.40;;;4.30;94.40;;;;;;4957636;28;20085;-75
2021/03/07 02:30:14;;;;;;;6.38;5.43;;;4.20;94.50;;;;;;4970179;28;20094;-75
2021/03/07 02:32:46;;;;;;;7.18;5.53;;;4.20;94.70;;;;;;4960017;28;20020;-75
2021/03/07 02:35:16;;;;;;;8.30;5.22;;;4.20;94.80;;;;;;4969533;28;20037;-75
2021/03/07 02:37:47;;;;;;;7.20;5.80;;;4.20;94.70;;;;;;4958015;28;20058;-75
2021/03/07 02:40:20;;;;;;;6.63;4.65;;;4.20;95.10;;;;;;4941560;28;20031;-76
2021/03/07 02:42:47;;;;;;;6.00;4.93;;;4.20;94.80;;;;;;4962422;28;20031;-75
2021/03/07 02:45:19;;;;;;;6.03;4.65;;;4.10;95.20;;;;;;4956212;28;20086;-75
2021/03/07 02:47:48;;;;;;;7.40;4.88;;;4.10;95.20;;;;;;4964901;28;20057;-76
2021/03/07 02:50:19;;;;;;;7.18;5.25;;;4.10;95.00;;;;;;4959722;28;20030;-76
2021/03/07 02:52:55;;;;;;;7.97;5.65;;;4.00;95.30;;;;;;4958357;28;20031;-75
2021/03/07 02:55:25;;;;;;;8.23;5.85;;;4.00;95.60;;;;;;4962487;28;20042;-75
2021/03/07 02:57:52;;;;;;;5.97;4.93;;;4.00;95.70;;;;;;4960900;28;21372;-76
2021/03/07 03:00:18;;;;;;;6.82;4.72;;;4.10;95.20;;;;;;4963650;28;20045;-75
2021/03/07 03:02:46;;;;;;;8.70;5.20;;;4.10;94.90;;;;;;4963511;28;20461;-75
2021/03/07 03:05:13;;;;;;;8.32;5.82;;;4.10;94.90;;;;;;4951035;28;20493;-76
2021/03/07 03:07:40;;;;;;;6.97;5.20;;;4.00;94.80;;;;;;4958786;28;20154;-76
2021/03/07 03:10:07;;;;;;;7.43;5.22;;;3.90;94.80;;;;;;4959740;28;20082;-75
2021/03/07 03:12:36;;;;;;;8.43;5.40;;;3.90;94.70;;;;;;4963077;28;20114;-75
2021/03/07 03:15:05;;;;;;;7.18;5.65;;;3.90;94.80;;;;;;4962409;28;20042;-75
2021/03/07 03:17:32;;;;;;;6.82;5.53;;;3.90;94.90;;;;;;4958777;28;20054;-75
2021/03/07 03:19:58;;;;;;;6.50;5.47;;;3.80;94.80;;;;;;4948005;28;20490;-76
2021/03/07 03:22:24;;;;;;;8.15;5.30;;;3.80;95.00;;;;;;4954967;28;20039;-76
2021/03/07 03:24:50;;;;;;;8.85;5.72;;;3.80;94.90;;;;;;4960447;28;20089;-76
2021/03/07 03:27:16;;;;;;;5.18;4.63;;;3.70;94.80;;;;;;4953220;28;20090;-76
2021/03/07 03:29:42;;;;;;;9.73;6.25;;;3.80;94.90;;;;;;4962684;28;20569;-75
2021/03/07 03:32:09;;;;;;;10.65;5.85;;;3.80;94.80;;;;;;4958989;28;20046;-75
2021/03/07 03:34:36;;;;;;;5.47;4.72;;;3.70;95.00;;;;;;4958767;28;20043;-78
2021/03/07 03:37:02;;;;;;;6.28;5.18;;;3.70;94.90;;;;;;4966530;28;20030;-75
2021/03/07 03:39:29;;;;;;;7.07;5.45;;;3.70;95.20;;;;;;4960082;28;20031;-75
2021/03/07 03:42:01;;;;;;;8.15;5.97;;;3.70;95.20;;;;;;4968090;28;20026;-76
2021/03/07 03:44:40;;;;;;;6.38;5.13;;;3.70;95.30;;;;;;4959083;28;20031;-75
2021/03/07 03:47:13;;;;;;;9.35;6.05;;;3.60;95.70;;;;;;4962624;28;20023;-75
2021/03/07 03:49:52;;;;;;;7.47;5.28;;;3.60;96.00;;;;;;4958112;28;20110;-76
2021/03/07 03:52:21;;;;;;;7.38;5.28;;;3.70;95.30;;;;;;4962326;28;20024;-75
2021/03/07 03:54:51;;;;;;;14.43;5.90;;;3.80;94.80;;;;;;4958338;28;20023;-75
2021/03/07 03:57:20;;;;;;;8.52;5.57;;;3.90;94.30;;;;;;4968746;28;20026;-76
2021/03/07 03:59:48;;;;;;;9.70;6.50;;;3.90;94.00;;;;;;4951332;28;20032;-75
2021/03/07 04:02:15;;;;;;;6.93;5.40;;;3.90;94.20;;;;;;4950090;28;20026;-75
2021/03/07 04:04:41;;;;;;;10.80;5.68;;;3.90;94.20;;;;;;4956941;28;20417;-75
2021/03/07 04:07:08;;;;;;;8.43;5.60;;;3.70;95.30;;;;;;4955701;28;20545;-75
2021/03/07 04:09:35;;;;;;;8.55;6.32;;;3.60;95.40;;;;;;4958868;28;20042;-75
2021/03/07 04:12:04;;;;;;;9.98;6.72;;;3.40;95.30;;;;;;4967016;28;20114;-75
2021/03/07 04:14:30;;;;;;;7.18;5.45;;;3.40;96.30;;;;;;4958842;28;20027;-75
2021/03/07 04:16:58;;;;;;;8.73;5.88;;;3.40;96.20;;;;;;4962769;28;20023;-75
2021/03/07 04:19:24;;;;;;;9.07;5.30;;;3.30;96.20;;;;;;4952850;28;20438;-75
2021/03/07 04:21:52;;;;;;;9.48;5.65;;;3.20;96.90;;;;;;4952260;28;20031;-75
2021/03/07 04:24:18;;;;;;;9.02;6.18;;;3.10;97.00;;;;;;4934461;28;20035;-75
2021/03/07 04:26:44;;;;;;;7.72;5.22;;;3.20;97.10;;;;;;4966816;28;20555;-77
2021/03/07 04:29:10;;;;;;;7.82;6.00;;;3.30;96.40;;;;;;4963366;28;20442;-76
2021/03/07 04:31:36;;;;;;;11.02;5.72;;;3.40;96.10;;;;;;4966595;28;20026;-76
2021/03/07 04:34:03;;;;;;;7.63;5.43;;;3.30;96.10;;;;;;4959656;28;20030;-76
2021/03/07 04:36:29;;;;;;;11.68;6.78;;;3.40;95.90;;;;;;4963568;28;20394;-75
2021/03/07 04:38:56;;;;;;;10.52;6.05;;;3.40;95.00;;;;;;4946834;28;20501;-75
2021/03/07 04:41:22;;;;;;;6.90;5.13;;;3.40;95.20;;;;;;4962735;28;20099;-76
2021/03/07 04:43:50;;;;;;;5.53;5.00;;;3.40;94.60;;;;;;4965095;28;20118;-75
2021/03/07 04:46:26;;;;;;;8.43;4.90;;;3.40;94.50;;;;;;4963045;28;20098;-75
2021/03/07 04:48:53;;;;;;;6.82;5.57;;;3.50;94.70;;;;;;4964722;28;20092;-75
2021/03/07 04:51:19;;;;;;;7.13;5.15;;;3.50;94.00;;;;;;4960015;28;20564;-75
2021/03/07 04:53:45;;;;;;;11.35;9.30;;;3.50;94.70;;;;;;4963457;28;20490;-76
2021/03/07 04:56:11;;;;;;;6.47;5.00;;;3.50;94.60;;;;;;4968231;28;20021;-75
2021/03/07 04:58:38;;;;;;;7.22;5.85;;;3.50;94.70;;;;;;4967386;28;20393;-77
2021/03/07 05:01:04;;;;;;;6.55;5.43;;;3.40;94.30;;;;;;4955484;28;20024;-76
2021/03/07 05:03:31;;;;;;;7.57;5.30;;;3.30;94.80;;;;;;4963597;28;20075;-75
2021/03/07 05:05:58;;;;;;;9.30;6.30;;;3.30;94.80;;;;;;4949307;28;20027;-77
2021/03/07 05:08:25;;;;;;;9.02;6.22;;;3.40;94.20;;;;;;4965229;28;20130;-75
2021/03/07 05:10:52;;;;;;;11.25;5.82;;;3.60;93.70;;;;;;4959102;28;20107;-77
2021/03/07 05:13:18;;;;;;;9.30;5.35;;;3.60;93.80;;;;;;4965483;28;20098;-76
2021/03/07 05:15:44;;;;;;;9.77;6.53;;;3.70;93.80;;;;;;4965507;28;20034;-76
2021/03/07 05:18:10;;;;;;;9.30;6.03;;;3.70;93.80;;;;;;4963104;28;20032;-76
2021/03/07 05:20:36;;;;;;;7.55;5.95;;;3.70;93.80;;;;;;4960414;28;20437;-75
2021/03/07 05:23:02;;;;;;;10.70;7.45;;;3.70;94.10;;;;;;4960647;28;20034;-75
2021/03/07 05:25:28;;;;;;;7.63;6.40;;;3.70;94.30;;;;;;4959054;28;20020;-75
2021/03/07 05:27:54;;;;;;;9.45;6.10;;;3.70;94.60;;;;;;4962836;28;20162;-76
2021/03/07 05:30:21;;;;;;;8.60;6.15;;;3.70;94.00;;;;;;4956612;28;20018;-75
2021/03/07 05:32:47;;;;;;;9.07;6.07;;;3.70;94.20;;;;;;4967509;28;20452;-76
2021/03/07 05:35:13;;;;;;;10.77;5.25;;;3.70;93.70;;;;;;4968355;28;20069;-75
2021/03/07 05:37:39;;;;;;;8.35;6.05;;;3.70;93.70;;;;;;4964618;28;20027;-77
2021/03/07 05:40:06;;;;;;;7.85;5.85;;;3.80;93.40;;;;;;4964941;28;20086;-76
2021/03/07 05:42:33;;;;;;;9.23;5.97;;;3.90;93.70;;;;;;4954062;28;20410;-76
2021/03/07 05:44:59;;;;;;;9.10;6.20;;;3.90;93.90;;;;;;4955360;28;20027;-75
2021/03/07 05:47:26;;;;;;;11.85;7.35;;;3.90;93.70;;;;;;4961999;28;20158;-77
2021/03/07 05:49:52;;;;;;;8.80;6.25;;;3.80;93.60;;;;;;4958304;28;20027;-77
2021/03/07 05:52:23;;;;;;;16.33;6.97;;;3.90;93.70;;;;;;4958902;28;20196;-75
2021/03/07 05:54:53;;;;;;;10.00;6.60;;;3.80;93.80;;;;;;4960313;28;20033;-77
2021/03/07 05:57:23;;;;;;;7.63;6.00;;;3.70;94.20;;;;;;4971106;28;20038;-76
2021/03/07 05:59:51;;;;;;;14.18;6.15;;;3.60;94.60;;;;;;4949086;28;20031;-75
2021/03/07 06:02:18;;;;;;;10.25;6.25;;;3.60;94.60;;;;;;4965546;28;20030;-76
2021/03/07 06:04:49;;;;;;;11.32;6.93;;;3.60;94.70;;;;;;4957290;28;20031;-75
2021/03/07 06:07:15;;;;;;;7.47;5.88;;;3.50;95.00;;;;;;4966700;28;20569;-75
2021/03/07 06:09:41;;;;;;;7.35;6.32;;;3.60;94.80;;;;;;4960351;28;20063;-76
2021/03/07 06:12:15;;;;;;;10.20;6.30;;;3.70;94.80;;;;;;4967954;28;20026;-76
2021/03/07 06:14:42;;;;;;;9.43;7.30;;;3.80;94.70;;;;;;4953063;28;20110;-77
2021/03/07 06:17:14;;;;;;;11.38;7.07;;;3.80;94.80;;;;;;4955873;28;20045;-77
2021/03/07 06:20:01;;;;;;;8.13;6.50;;;3.70;94.90;;;;;;4961835;28;20508;-77
2021/03/07 06:22:31;;;;;;;8.18;6.53;;;3.70;95.00;;;;;;4961820;28;20784;-76
2021/03/07 06:24:58;;;;;;;10.50;6.45;;;3.70;95.10;;;;;;4937111;28;20093;-79
2021/03/07 06:27:24;;;;;;;10.98;6.82;;;3.70;95.10;;;;;;4959846;28;20106;-75
2021/03/07 06:29:53;;;;;;;9.30;6.93;;;3.70;94.80;;;;;;4946708;28;21672;-75
2021/03/07 06:32:19;;;;;;;8.20;6.63;;;3.70;94.70;;;;;;4950163;28;20039;-75
2021/03/07 06:34:46;;;;;;;10.27;5.57;;;3.80;94.90;;;;;;4959810;28;20079;-77
2021/03/07 06:37:12;;;;;;;7.75;6.75;;;3.90;94.60;;;;;;4961943;28;20093;-75
2021/03/07 06:39:38;;;;;;;9.40;7.53;;;4.00;94.50;;;;;;4958710;28;20505;-75
2021/03/07 06:42:07;;;;;;;15.35;8.82;;;3.90;94.50;;;;;;4960113;28;20035;-76
2021/03/07 06:44:34;;;;;;;12.60;8.13;;;3.90;94.40;;;;;;4954682;28;20038;-76
2021/03/07 06:47:27;;;;;;;9.18;6.65;;;4.00;94.60;;;;;;4966727;28;20393;-76
2021/03/07 06:50:13;;;;;;;8.73;6.55;;;4.20;94.40;;;;;;4951134;28;20035;-77
2021/03/07 06:52:56;;;;;;;11.00;5.43;;;4.20;94.40;;;;;;4958963;28;20039;-75
2021/03/07 06:55:27;;;;;;;10.25;6.78;;;4.20;94.10;;;;;;4960573;28;20027;-76
2021/03/07 06:57:54;;;;;;;9.27;7.40;;;4.30;94.10;;;;;;4970680;28;20024;-76
2021/03/07 07:00:39;;;;;;;8.45;6.78;;;4.30;94.00;;;;;;4963416;28;20039;-76
2021/03/07 07:03:09;;;;;;;8.88;7.50;;;4.40;94.10;;;;;;4964146;28;20023;-76
2021/03/07 07:05:43;;;;;;;8.68;7.10;;;4.40;94.30;;;;;;4954839;28;20054;-75
2021/03/07 07:08:11;;;;;;;12.07;7.40;;;4.60;94.30;;;;;;4953951;28;20050;-75
2021/03/07 07:10:52;;;;;;;9.32;7.00;;;4.70;94.00;;;;;;4962598;28;20019;-75
2021/03/07 07:13:26;;;;;;;8.63;6.22;;;4.70;94.10;;;;;;4958008;28;20023;-75
2021/03/07 07:16:03;;;;;;;10.00;6.93;;;4.70;94.00;;;;;;4952866;28;20031;-76
2021/03/07 07:18:30;;;;;;;12.80;8.25;;;4.70;94.20;;;;;;4958668;28;20633;-74
2021/03/07 07:20:57;;;;;;;13.68;6.82;;;4.80;94.20;;;;;;4952761;28;20031;-75
2021/03/07 07:23:25;;;;;;;9.73;8.02;;;4.90;94.20;;;;;;4956538;28;20027;-76
2021/03/07 07:25:51;;;;;;;9.80;8.10;;;5.00;94.10;;;;;;4952592;28;20054;-76
2021/03/07 07:28:17;;;;;;;10.68;8.23;;;5.10;94.00;;;;;;4951754;28;20034;-76
2021/03/07 07:30:57;;;;;;;9.20;6.22;;;5.20;93.90;;;;;;4936858;29;20051;-76
2021/03/07 07:33:40;;;;;;;9.13;7.25;;;5.30;94.20;;;;;;4944634;29;20051;-75
2021/03/07 07:36:09;;;;;;;9.25;6.88;;;5.30;93.90;;;;;;4937529;29;20036;-76
2021/03/07 07:38:38;;;;;;;9.85;7.75;;;5.30;93.70;;;;;;4937286;29;20078;-75
2021/03/07 07:41:27;;;;;;;9.88;7.47;;;5.50;93.70;;;;;;4937800;29;20024;-76
2021/03/07 07:43:53;;;;;;;11.65;8.70;;;5.50;93.40;;;;;;4950111;29;20071;-75
2021/03/07 07:46:19;;;;;;;11.05;8.68;;;5.60;93.30;;;;;;4954322;28;20496;-75
2021/03/07 07:48:46;;;;;;;13.18;9.45;;;5.70;93.10;;;;;;4953557;28;20390;-77
2021/03/07 07:51:32;;;;;;;10.93;8.23;;;5.70;93.00;;;;;;4950903;28;20024;-76
2021/03/07 07:53:59;;;;;;;10.68;8.48;;;5.80;93.00;;;;;;4942350;29;20151;-75
2021/03/07 07:56:40;;;;;;;10.50;7.72;;;5.90;92.70;;;;;;4959896;28;20489;-75
2021/03/07 07:59:08;;;;;;;10.40;7.75;;;6.00;92.40;;;;;;4964378;28;20114;-75
2021/03/07 08:01:52;;;;;;;10.38;7.43;;;6.10;92.60;;;;;;4961668;28;20023;-75
2021/03/07 08:04:27;;;;;;;9.50;6.95;;;6.20;92.20;;;;;;4953928;29;20083;-75
2021/03/07 08:06:54;;;;;;;9.90;7.57;;;6.30;92.10;;;;;;4968207;28;20059;-75
2021/03/07 08:09:50;;;;;;;12.88;8.00;;;6.30;91.70;;;;;;4969762;29;20031;-75
2021/03/07 08:12:45;;;;;;;9.90;7.85;;;6.40;92.30;;;;;;4961971;28;20027;-76
2021/03/07 08:15:26;;;;;;;7.57;6.78;;;6.60;92.40;;;;;;4961355;28;20027;-69
2021/03/07 08:17:56;;;;;;;14.95;6.72;;;6.60;91.60;;;;;;4951273;29;20051;-69
2021/03/07 08:20:44;;;;;;;11.32;7.57;;;6.80;92.40;;;;;;4955352;28;20031;-70
2021/03/07 08:23:20;;;;;;;8.35;7.50;;;6.90;92.50;;;;;;4950495;29;20057;-70
2021/03/07 08:25:46;;;;;;;9.27;6.75;;;7.00;95.20;;;;;;4957427;28;20154;-70
2021/03/07 08:28:38;;;;;;;8.23;7.05;;;7.30;93.70;;;;;;4959190;28;20086;-70
2021/03/07 08:31:09;;;;;;;10.95;6.40;;;7.50;93.00;;;;;;4966506;28;20037;-70
2021/03/07 08:33:37;;;;;;;7.53;6.22;;;7.60;93.30;;;;;;4965908;28;20027;-70
2021/03/07 08:36:12;;;;;;;7.55;6.80;;;7.90;94.00;;;;;;4939546;28;20036;-70
2021/03/07 08:38:56;;;;;;;8.05;6.35;;;8.00;93.30;;;;;;4943757;29;20355;-70
2021/03/07 08:41:24;;;;;;;7.97;5.93;;;8.00;91.90;;;;;;4957446;28;20023;-70
2021/03/07 08:44:00;;;;;;;8.02;7.13;;;8.10;90.00;;;;;;4957634;28;20035;-70
2021/03/07 08:46:27;;;;;;;8.38;7.38;;;8.10;89.80;;;;;;4956764;29;20509;-71
2021/03/07 08:49:06;;;;;;;6.85;5.38;;;8.20;91.80;;;;;;4957334;29;20061;-70
2021/03/07 08:51:37;;;;;;;10.50;5.70;;;8.20;90.90;;;;;;4956645;29;20034;-70
2021/03/07 08:54:11;;;;;;;7.72;6.00;;;8.20;86.90;;;;;;4951267;28;20050;-70
2021/03/07 08:56:39;;;;;;;7.72;5.63;;;8.20;86.60;;;;;;4966996;28;20034;-71
2021/03/07 08:59:06;;;;;;;6.97;6.07;;;8.40;91.20;;;;;;4957257;28;20054;-69
2021/03/07 09:01:32;;;;;;;8.45;6.70;;;8.50;88.50;;;;;;4956964;28;20034;-70
2021/03/07 09:04:00;;;;;;;7.88;5.90;;;8.60;88.20;;;;;;4940352;29;21337;-73
2021/03/07 09:06:31;;;;;;;11.32;6.00;;;8.60;89.50;;;;;;4948367;29;20027;-75
2021/03/07 09:09:22;;;;;;;6.78;5.25;;;8.70;87.10;;;;;;4951095;28;20034;-74
2021/03/07 09:11:54;;;;;;;6.32;5.03;;;8.70;79.10;;;;;;4971929;28;20094;-74
2021/03/07 09:14:46;;;;;;;4.95;4.25;;;8.70;83.10;;;;;;4957472;28;20074;-74
2021/03/07 09:17:22;;;;;;;5.60;4.82;;;8.50;79.10;;;;;;4951041;29;20035;-74
2021/03/07 09:19:49;;;;;;;6.90;4.28;;;8.60;81.20;;;;;;4955842;28;20039;-74
2021/03/07 09:22:24;;;;;;;5.93;3.75;;;8.80;79.50;;;;;;4957184;28;20023;-74
2021/03/07 09:25:09;;;;;;;7.05;4.53;;;8.80;79.90;;;;;;4956986;28;20033;-74
2021/03/07 09:27:40;;;;;;;12.90;4.47;;;8.80;78.60;;;;;;4957057;28;20489;-74
2021/03/07 09:30:16;;;;;;;8.55;4.38;;;8.70;73.30;;;;;;4947408;29;20048;-74
2021/03/07 09:32:50;;;;;;;17.60;5.00;;;8.50;75.30;;;;;;4937745;29;20030;-74
2021/03/07 09:35:22;;;;;;;14.27;4.72;;;8.40;76.50;;;;;;4949918;28;20089;-74
2021/03/07 09:38:03;;;;;;;13.30;4.97;;;8.30;73.90;;;;;;4953735;29;20019;-74
2021/03/07 09:40:34;;;;;;;6.80;4.15;;;8.30;73.50;;;;;;4941825;28;20442;-74
2021/03/07 09:43:06;;;;;;;8.98;4.60;;;8.30;73.20;;;;;;4961402;28;20126;-74
2021/03/07 09:45:32;;;;;;;;;;;8.40;73.50;;;;;;4959264;28;20061;-74
2021/03/07 09:47:58;;;;;;;5.82;3.83;;;8.40;71.70;;;;;;4967202;28;19914;-74
2021/03/07 09:50:24;;;;;;;7.78;5.03;;;8.30;72.60;;;;;;4969829;28;20102;-74
2021/03/07 09:52:51;;;;;;;6.78;3.70;;;8.40;73.20;;;;;;4955518;28;20075;-74
2021/03/07 09:55:32;;;;;;;5.20;4.47;;;8.50;73.80;;;;;;4963071;28;20374;-73
2021/03/07 09:58:03;;;;;;;10.05;4.53;;;8.60;73.10;;;;;;4952890;28;20126;-74
2021/03/07 10:00:30;;;;;;;4.15;3.78;;;8.60;72.00;;;;;;4966170;28;20751;-73
2021/03/07 10:02:56;;;;;;;4.68;4.28;;;8.60;73.70;;;;;;4954896;28;20035;-75
2021/03/07 10:05:22;;;;;;;7.32;4.72;;;8.50;81.00;;;;;;4957870;28;20050;-74
2021/03/07 10:07:48;;;;;;;6.07;4.85;;;8.50;81.70;;;;;;4955551;28;20039;-74
2021/03/07 10:10:23;;;;;;;7.40;4.85;;;8.50;77.30;;;;;;4959807;29;20095;-75
2021/03/07 10:12:53;;;;;;;8.20;6.47;;;8.60;81.70;;;;;;4954786;28;20493;-74
2021/03/07 10:15:34;;;;;;;7.93;7.13;;;8.60;82.50;;;;;;4954273;29;20027;-74
2021/03/07 10:18:03;;;;;;;7.28;5.80;;;8.50;87.00;;;;;;4951374;29;20031;-74
2021/03/07 10:20:40;;;;;;;6.40;4.95;;;8.40;85.00;;;;;;4955259;28;20037;-74
2021/03/07 10:23:06;;;;;;;5.60;5.10;;;8.30;90.00;;;;;;4962292;28;20031;-74
2021/03/07 10:25:43;;;;;;;11.50;5.65;;;8.20;90.30;;;;;;4955259;28;20114;-74
2021/03/07 10:28:12;;;;;;;7.15;5.93;;;8.10;89.10;;;;;;4956920;28;20055;-74
2021/03/07 10:30:40;;;;;;;7.95;5.07;;;8.10;90.40;;;;;;4945479;29;20676;-74
2021/03/07 10:33:14;;;;;;;10.45;6.18;;;8.00;90.10;;;;;;4937140;29;20020;-74
2021/03/07 10:36:08;;;;;;;7.25;6.50;;;8.00;90.70;;;;;;4947720;29;20117;-74
2021/03/07 10:38:40;;;;;;;7.53;5.50;;;8.00;91.20;;;;;;4956757;29;20027;-74
2021/03/07 10:41:21;;;;;;;9.13;6.37;;;8.00;90.40;;;;;;4956819;28;20079;-74
2021/03/07 10:43:51;;;;;;;7.60;6.43;;;8.10;91.30;;;;;;4961244;28;20337;-74
2021/03/07 10:46:41;;;;;;;5.72;4.70;;;8.20;91.20;;;;;;4956127;28;20031;-74
2021/03/07 10:49:09;;;;;;;8.82;5.53;;;8.20;90.00;;;;;;4956293;28;20027;-74
2021/03/07 10:51:35;;;;;;;8.25;5.70;;;8.20;91.30;;;;;;4953912;28;20042;-74
2021/03/07 10:54:02;;;;;;;5.22;4.60;;;8.30;92.20;;;;;;4955057;28;20031;-74
2021/03/07 10:56:32;;;;;;;19.80;14.07;;;8.30;92.20;;;;;;4940548;28;20060;-75
2021/03/07 10:58:59;;;;;;;25.35;17.30;;;8.30;90.60;;;;;;4949589;29;20027;-74
2021/03/07 11:01:25;;;;;;;20.20;14.13;;;8.30;92.30;;;;;;4944859;29;20035;-73
2021/03/07 11:03:52;;;;;;;51.78;31.10;;;8.30;91.70;;;;;;4936875;29;20024;-74
2021/03/07 11:06:19;;;;;;;23.95;16.35;;;8.40;91.40;;;;;;4944404;29;20034;-74
2021/03/07 11:08:46;;;;;;;10.38;6.20;;;8.40;91.40;;;;;;4955113;29;20139;-75
2021/03/07 11:11:11;;;;;;;7.18;5.53;;;8.50;90.70;;;;;;4952319;28;20631;-74
2021/03/07 11:13:37;;;;;;;6.18;5.10;;;8.50;91.40;;;;;;4955467;28;20023;-76
2021/03/07 11:16:03;;;;;;;7.25;5.53;;;8.50;91.70;;;;;;4955246;28;20023;-75
2021/03/07 11:18:29;;;;;;;5.00;4.47;;;8.60;88.80;;;;;;4955972;28;20039;-74
2021/03/07 11:20:55;;;;;;;5.50;4.53;;;8.60;89.30;;;;;;4954328;29;20461;-76
2021/03/07 11:23:22;;;;;;;7.07;4.93;;;8.70;90.50;;;;;;4954929;29;20057;-78
2021/03/07 11:25:47;;;;;;;5.80;5.22;;;8.70;91.60;;;;;;4949189;28;20678;-75
2021/03/07 11:28:13;;;;;;;4.57;4.18;;;8.70;91.30;;;;;;4937193;29;20059;-75
2021/03/07 11:30:39;;;;;;;7.95;4.30;;;8.60;91.10;;;;;;4940192;29;20035;-75
2021/03/07 11:33:06;;;;;;;6.35;4.65;;;8.60;91.40;;;;;;4954615;28;20034;-76
2021/03/07 11:35:32;;;;;;;5.60;5.05;;;8.50;91.40;;;;;;4954313;28;20504;-75
2021/03/07 11:37:58;;;;;;;11.15;4.90;;;8.30;93.10;;;;;;4954924;28;20046;-75
2021/03/07 11:40:28;;;;;;;5.75;4.70;;;8.30;93.30;;;;;;4947674;29;20517;-73
2021/03/07 11:42:55;;;;;;;8.68;5.22;;;8.20;93.50;;;;;;4952027;29;20031;-74
2021/03/07 11:45:22;;;;;;;7.50;6.03;;;8.30;94.20;;;;;;4949583;29;20031;-74
2021/03/07 11:47:48;;;;;;;5.25;4.75;;;8.30;92.50;;;;;;4935091;29;20405;-74
2021/03/07 11:50:14;;;;;;;6.68;4.32;;;8.40;93.60;;;;;;4943612;28;20027;-74
2021/03/07 11:52:40;;;;;;;9.80;4.60;;;8.40;94.00;;;;;;4955006;28;20081;-74
2021/03/07 11:55:08;;;;;;;6.90;4.47;;;8.30;94.00;;;;;;4953761;28;20031;-75
2021/03/07 11:57:34;;;;;;;12.63;5.65;;;8.30;94.20;;;;;;4955334;29;20019;-75
2021/03/07 12:00:01;;;;;;;6.07;5.15;;;8.30;94.90;;;;;;4955098;28;20027;-75
2021/03/07 12:02:27;;;;;;;9.35;4.80;;;8.40;93.00;;;;;;4953863;28;20479;-75
2021/03/07 12:04:53;;;;;;;5.10;4.00;;;8.30;93.30;;;;;;4940408;28;20070;-75
2021/03/07 12:07:19;;;;;;;5.63;4.43;;;8.40;91.20;;;;;;4939734;29;20118;-75
2021/03/07 12:09:46;;;;;;;4.70;4.05;;;8.30;92.60;;;;;;4954943;28;20031;-75
2021/03/07 12:12:13;;;;;;;8.30;4.80;;;8.40;92.70;;;;;;4953765;28;20406;-75
2021/03/07 12:14:40;;;;;;;5.93;5.00;;;8.40;94.40;;;;;;4952737;29;20174;-75
2021/03/07 12:17:06;;;;;;;4.72;4.30;;;8.50;95.20;;;;;;4949356;29;20099;-77
2021/03/07 12:19:32;;;;;;;4.65;4.22;;;8.50;94.30;;;;;;4944225;29;20167;-75
2021/03/07 12:21:58;;;;;;;5.25;3.80;;;8.60;94.90;;;;;;4966037;28;20502;-75
2021/03/07 12:24:24;;;;;;;6.82;4.50;;;8.50;94.20;;;;;;4954862;29;20031;-75
2021/03/07 12:26:50;;;;;;;7.97;5.57;;;8.50;96.60;;;;;;4948385;28;20352;-75
2021/03/07 12:29:16;;;;;;;12.23;5.78;;;8.40;97.80;;;;;;4948979;28;20050;-75
2021/03/07 12:31:42;;;;;;;5.20;3.78;;;8.40;97.70;;;;;;4952718;28;20019;-73
2021/03/07 12:34:08;;;;;;;7.45;4.32;;;8.50;97.50;;;;;;4952445;28;20026;-74
2021/03/07 12:36:33;;;;;;;6.47;4.32;;;8.40;96.60;;;;;;4939849;29;20087;-73
2021/03/07 12:39:00;;;;;;;5.10;4.43;;;8.30;96.80;;;;;;4955513;28;20023;-74
2021/03/07 12:41:26;;;;;;;6.57;4.10;;;8.30;96.70;;;;;;4958221;28;20030;-74
2021/03/07 12:43:52;;;;;;;5.00;4.18;;;8.30;96.20;;;;;;4965241;28;20031;-73
2021/03/07 12:46:18;;;;;;;4.75;4.20;;;8.20;96.80;;;;;;4958673;28;20365;-73
2021/03/07 12:48:44;;;;;;;6.57;4.35;;;8.20;96.90;;;;;;4958304;28;20023;-74
2021/03/07 12:51:10;;;;;;;5.80;4.32;;;8.20;96.80;;;;;;4966111;28;20027;-73
2021/03/07 12:53:36;;;;;;;6.32;4.65;;;8.30;97.30;;;;;;4972447;28;20142;-73
2021/03/07 12:56:03;;;;;;;7.32;6.57;;;8.30;97.50;;;;;;4963094;28;20034;-73
2021/03/07 12:58:29;;;;;;;7.55;6.53;;;8.30;96.20;;;;;;4967432;28;20031;-74
2021/03/07 13:00:57;;;;;;;11.68;10.10;;;8.30;96.20;;;;;;4961416;28;20023;-74
2021/03/07 13:03:22;;;;;;;13.40;9.18;;;8.50;96.80;;;;;;4970635;28;20019;-73
2021/03/07 13:05:48;;;;;;;5.43;4.88;;;8.70;97.60;;;;;;4956282;28;20274;-73